Time;durP1;ratioP1;P1;durP2;ratioP2;P2;SDS_P1;SDS_P2;PMS_P1;PMS_P2;Temp;Humidity;BMP_temperature;BMP_pressure;BME280_temperature;BME280_humidity;BME280_pressure;Samples;Min_cycle;Max_cycle;Signal;HPM_P1;HPM_P2
2023/08/26 00:00:41;;;;;;;5.63;2.13;;;15.10;99.90;;;;;;5053348;28;20179;-51
2023/08/26 00:03:06;;;;;;;4.82;2.20;;;15.20;99.90;;;;;;5053264;28;20513;-49
2023/08/26 00:05:32;;;;;;;4.10;2.00;;;15.20;99.90;;;;;;5053106;28;20186;-53
2023/08/26 00:07:58;;;;;;;3.38;1.95;;;15.20;99.90;;;;;;5053168;28;20254;-54
2023/08/26 00:10:23;;;;;;;3.92;1.92;;;15.00;99.90;;;;;;5053175;28;20256;-52
2023/08/26 00:12:49;;;;;;;4.20;2.40;;;15.10;99.90;;;;;;5053078;28;20653;-53
2023/08/26 00:15:14;;;;;;;6.35;2.15;;;15.10;99.90;;;;;;5053183;28;20232;-53
2023/08/26 00:17:40;;;;;;;4.35;2.17;;;14.90;99.90;;;;;;5053070;28;20179;-52
2023/08/26 00:20:08;;;;;;;6.82;2.20;;;14.90;99.90;;;;;;5053171;28;20564;-53
2023/08/26 00:22:34;;;;;;;5.03;2.00;;;14.90;99.90;;;;;;5055593;28;20172;-53
2023/08/26 00:25:00;;;;;;;5.15;2.20;;;14.90;99.90;;;;;;5057304;28;20187;-51
2023/08/26 00:27:26;;;;;;;4.10;2.30;;;14.90;99.90;;;;;;5057147;28;20182;-53
2023/08/26 00:29:51;;;;;;;7.78;2.22;;;14.90;99.90;;;;;;5057124;28;20202;-53
2023/08/26 00:32:17;;;;;;;5.93;2.28;;;14.70;99.90;;;;;;5057114;28;20171;-53
2023/08/26 00:34:43;;;;;;;5.00;2.08;;;14.80;99.90;;;;;;5056927;28;20583;-52
2023/08/26 00:37:09;;;;;;;6.03;2.40;;;14.70;99.90;;;;;;5056850;28;20574;-52
2023/08/26 00:39:35;;;;;;;7.60;2.58;;;14.70;99.90;;;;;;5056877;28;20186;-52
2023/08/26 00:42:01;;;;;;;4.57;2.40;;;14.70;99.90;;;;;;5057188;28;20225;-52
2023/08/26 00:44:26;;;;;;;5.13;2.40;;;14.70;99.90;;;;;;5056967;28;20235;-53
2023/08/26 00:46:55;;;;;;;5.07;2.20;;;14.80;99.90;;;;;;5056927;28;20853;-52
2023/08/26 00:49:22;;;;;;;4.47;2.40;;;14.60;99.90;;;;;;5056932;28;20218;-52
2023/08/26 00:51:49;;;;;;;4.70;2.10;;;14.70;99.90;;;;;;5056736;28;20179;-52
2023/08/26 00:54:15;;;;;;;4.20;2.38;;;14.60;99.90;;;;;;5056864;28;20168;-53
2023/08/26 00:56:41;;;;;;;6.22;2.38;;;14.60;99.90;;;;;;5056790;28;20175;-51
2023/08/26 00:59:07;;;;;;;6.25;2.63;;;14.60;99.90;;;;;;5056618;28;20536;-54
2023/08/26 01:01:34;;;;;;;4.07;2.17;;;14.50;99.90;;;;;;5056536;28;20175;-55
2023/08/26 01:03:59;;;;;;;6.07;2.10;;;14.50;99.90;;;;;;5056501;28;20182;-53
2023/08/26 01:06:26;;;;;;;6.18;2.28;;;14.50;99.90;;;;;;5056832;28;20175;-53
2023/08/26 01:08:52;;;;;;;5.07;2.03;;;14.50;99.90;;;;;;5056416;28;20175;-51
2023/08/26 01:11:42;;;;;;;3.00;1.80;;;14.50;99.90;;;;;;5056338;28;20225;-54
2023/08/26 01:14:15;;;;;;;5.43;2.13;;;14.40;99.90;;;;;;5055145;28;20179;-54
2023/08/26 01:16:41;;;;;;;4.70;1.70;;;14.50;99.90;;;;;;5056290;28;20250;-53
2023/08/26 01:19:16;;;;;;;2.67;1.80;;;14.40;99.90;;;;;;5056096;28;20223;-54
2023/08/26 01:21:44;;;;;;;8.25;2.15;;;14.40;99.90;;;;;;5056243;28;20167;-54
2023/08/26 01:24:10;;;;;;;4.40;1.90;;;14.40;99.90;;;;;;5056269;28;20640;-54
2023/08/26 01:26:36;;;;;;;3.45;1.77;;;14.50;99.90;;;;;;5056128;28;20702;-52
2023/08/26 01:29:02;;;;;;;4.30;2.10;;;14.40;99.90;;;;;;5055954;28;20206;-53
2023/08/26 01:31:31;;;;;;;6.97;1.80;;;14.50;99.90;;;;;;5056223;28;20241;-54
2023/08/26 01:34:00;;;;;;;4.30;2.00;;;14.40;99.90;;;;;;5055350;28;20183;-55
2023/08/26 01:36:29;;;;;;;3.50;1.90;;;14.40;99.90;;;;;;5055973;28;20171;-54
2023/08/26 01:38:57;;;;;;;5.32;1.80;;;14.40;99.90;;;;;;5055915;28;20191;-53
2023/08/26 01:41:25;;;;;;;5.40;2.00;;;14.30;99.90;;;;;;5055759;28;20207;-54
2023/08/26 01:43:51;;;;;;;4.13;1.90;;;14.30;99.90;;;;;;5055742;28;20516;-52
2023/08/26 01:46:17;;;;;;;6.68;2.00;;;14.30;99.90;;;;;;5055741;28;20570;-52
2023/08/26 01:48:43;;;;;;;4.15;2.00;;;14.30;99.90;;;;;;5055770;28;20175;-53
2023/08/26 01:51:09;;;;;;;3.38;2.00;;;14.30;99.90;;;;;;5055579;28;20604;-53
2023/08/26 01:53:34;;;;;;;4.78;1.98;;;14.30;99.90;;;;;;5055572;28;20190;-52
2023/08/26 01:56:00;;;;;;;4.50;2.00;;;14.20;99.90;;;;;;5055562;28;20530;-51
2023/08/26 01:58:26;;;;;;;5.80;2.20;;;14.20;99.90;;;;;;5055447;28;20678;-49
2023/08/26 02:00:52;;;;;;;4.82;2.30;;;14.20;99.90;;;;;;5055699;28;20182;-51
2023/08/26 02:03:17;;;;;;;3.85;2.00;;;14.30;99.90;;;;;;5055520;28;20183;-52
2023/08/26 02:05:43;;;;;;;5.65;2.10;;;14.40;99.90;;;;;;5055399;28;20636;-53
2023/08/26 02:08:09;;;;;;;3.90;2.00;;;14.40;99.90;;;;;;5055273;28;20541;-51
2023/08/26 02:10:34;;;;;;;6.63;2.15;;;14.30;99.90;;;;;;5055161;28;20203;-51
2023/08/26 02:13:00;;;;;;;2.95;2.00;;;14.30;99.90;;;;;;5055229;28;20576;-50
2023/08/26 02:15:26;;;;;;;3.47;1.92;;;14.30;99.90;;;;;;5055298;28;20180;-51
2023/08/26 02:17:52;;;;;;;3.90;1.88;;;14.20;99.90;;;;;;5054001;28;20183;-53
2023/08/26 02:20:17;;;;;;;5.82;2.05;;;14.20;99.90;;;;;;5054963;28;20280;-53
2023/08/26 02:22:43;;;;;;;5.15;1.80;;;14.20;99.90;;;;;;5055085;28;20254;-54
2023/08/26 02:25:09;;;;;;;4.43;1.90;;;14.10;99.90;;;;;;5054960;28;20250;-54
2023/08/26 02:27:34;;;;;;;3.15;2.10;;;14.10;99.90;;;;;;5054945;28;20254;-53
2023/08/26 02:30:00;;;;;;;6.05;2.17;;;14.00;99.90;;;;;;5055011;28;20235;-50
2023/08/26 02:32:25;;;;;;;3.42;1.92;;;14.00;99.90;;;;;;5054996;28;20183;-48
2023/08/26 02:34:51;;;;;;;3.50;1.70;;;14.00;99.90;;;;;;5054918;28;20179;-53
2023/08/26 02:37:17;;;;;;;4.80;2.00;;;14.00;99.90;;;;;;5053572;28;20536;-52
2023/08/26 02:39:42;;;;;;;3.45;1.90;;;13.90;99.90;;;;;;5054790;28;20183;-53
2023/08/26 02:42:08;;;;;;;2.47;1.85;;;14.00;99.90;;;;;;5054650;28;20207;-52
2023/08/26 02:44:33;;;;;;;4.85;2.17;;;14.00;99.90;;;;;;5054332;28;20179;-52
2023/08/26 02:46:59;;;;;;;5.43;2.00;;;14.00;99.90;;;;;;5054007;28;20179;-51
2023/08/26 02:49:26;;;;;;;4.20;2.30;;;13.90;99.90;;;;;;5054552;28;20226;-53
2023/08/26 02:51:52;;;;;;;4.53;2.20;;;14.00;99.90;;;;;;5054657;28;20215;-53
2023/08/26 02:54:17;;;;;;;5.25;2.28;;;13.90;99.90;;;;;;5054481;28;20223;-52
2023/08/26 02:56:43;;;;;;;6.38;2.45;;;13.90;99.90;;;;;;5054331;28;20647;-53
2023/08/26 02:59:09;;;;;;;4.22;2.28;;;13.80;99.90;;;;;;5054528;28;20172;-55
2023/08/26 03:01:37;;;;;;;5.55;2.20;;;13.80;99.90;;;;;;5054238;28;20181;-52
2023/08/26 03:04:03;;;;;;;4.63;2.80;;;13.80;99.90;;;;;;5054346;28;20175;-50
2023/08/26 03:06:30;;;;;;;4.30;2.78;;;13.70;99.90;;;;;;5054249;28;20205;-53
2023/08/26 03:08:55;;;;;;;5.50;3.00;;;13.70;99.90;;;;;;5054107;28;20229;-51
2023/08/26 03:11:22;;;;;;;6.32;2.85;;;13.80;99.90;;;;;;5054024;28;20644;-52
2023/08/26 03:13:49;;;;;;;4.25;2.75;;;13.80;99.90;;;;;;5054034;28;20175;-52
2023/08/26 03:16:15;;;;;;;5.03;2.63;;;13.80;99.90;;;;;;5054162;28;20171;-54
2023/08/26 03:18:40;;;;;;;5.45;2.63;;;13.80;99.90;;;;;;5054141;28;20283;-52
2023/08/26 03:21:08;;;;;;;4.47;2.70;;;13.70;99.90;;;;;;5053984;28;20227;-50
2023/08/26 03:23:36;;;;;;;4.95;2.60;;;13.70;99.90;;;;;;5053901;28;20171;-52
2023/08/26 03:26:04;;;;;;;5.10;2.83;;;13.70;99.90;;;;;;5054052;28;20178;-52
2023/08/26 03:28:30;;;;;;;4.15;2.78;;;13.70;99.90;;;;;;5053920;28;20179;-52
2023/08/26 03:31:02;;;;;;;5.70;2.88;;;13.70;99.90;;;;;;5053816;28;20676;-51
2023/08/26 03:33:28;;;;;;;3.67;2.67;;;13.70;99.90;;;;;;5053797;28;20187;-52
2023/08/26 03:35:54;;;;;;;4.93;2.90;;;13.70;99.90;;;;;;5053727;28;20175;-53
2023/08/26 03:38:20;;;;;;;5.50;2.60;;;13.70;99.90;;;;;;5053565;28;20179;-53
2023/08/26 03:40:45;;;;;;;4.03;2.58;;;13.70;99.90;;;;;;5053813;28;20209;-54
2023/08/26 03:43:11;;;;;;;5.13;2.80;;;13.70;99.90;;;;;;5053729;28;20182;-51
2023/08/26 03:45:39;;;;;;;5.03;2.80;;;13.80;99.90;;;;;;5053628;28;20175;-52
2023/08/26 03:48:05;;;;;;;5.68;2.47;;;13.80;99.90;;;;;;5053474;28;20163;-54
2023/08/26 03:50:30;;;;;;;5.65;3.10;;;13.80;99.90;;;;;;5053441;28;20210;-51
2023/08/26 03:52:56;;;;;;;4.50;2.58;;;13.70;99.90;;;;;;5053324;28;20191;-53
2023/08/26 03:55:21;;;;;;;4.45;2.63;;;13.70;99.90;;;;;;5052368;28;20566;-53
2023/08/26 03:57:47;;;;;;;5.97;3.00;;;13.60;99.90;;;;;;5053066;28;20209;-52
2023/08/26 04:00:14;;;;;;;5.13;2.42;;;13.60;99.90;;;;;;5053431;28;20183;-52
2023/08/26 04:02:40;;;;;;;6.25;2.65;;;13.60;99.90;;;;;;5053419;28;20179;-54
2023/08/26 04:05:06;;;;;;;3.80;2.55;;;13.70;99.90;;;;;;5053273;28;20183;-52
2023/08/26 04:07:32;;;;;;;5.32;2.60;;;13.60;99.90;;;;;;5053417;28;20559;-50
2023/08/26 04:09:58;;;;;;;5.00;2.80;;;13.60;99.90;;;;;;5053245;28;20638;-53
2023/08/26 04:12:23;;;;;;;4.15;2.58;;;13.70;99.90;;;;;;5053327;28;20217;-53
2023/08/26 04:14:49;;;;;;;3.90;2.97;;;13.60;99.90;;;;;;5053238;28;20644;-54
2023/08/26 04:17:14;;;;;;;4.80;3.10;;;13.60;99.90;;;;;;5053212;28;20171;-53
2023/08/26 04:19:40;;;;;;;5.35;3.10;;;13.70;99.90;;;;;;5053135;28;20223;-53
2023/08/26 04:22:07;;;;;;;4.13;2.80;;;13.70;99.90;;;;;;5053012;28;20186;-53
2023/08/26 04:24:33;;;;;;;3.75;2.65;;;13.70;99.90;;;;;;5052949;28;20509;-54
2023/08/26 04:26:59;;;;;;;3.65;2.53;;;13.60;99.90;;;;;;5053214;28;20182;-52
2023/08/26 04:29:24;;;;;;;4.95;2.75;;;13.60;99.90;;;;;;5053058;28;20204;-53
2023/08/26 04:31:50;;;;;;;4.70;2.78;;;13.60;99.90;;;;;;5053169;28;20186;-54
2023/08/26 04:34:15;;;;;;;4.10;2.42;;;13.60;99.90;;;;;;5053207;28;20179;-53
2023/08/26 04:36:41;;;;;;;5.65;3.00;;;13.60;99.90;;;;;;5051659;28;20641;-52
2023/08/26 04:39:10;;;;;;;3.40;2.38;;;13.60;99.90;;;;;;5053118;28;20183;-53
2023/08/26 04:41:38;;;;;;;5.72;3.00;;;13.60;99.90;;;;;;5052948;28;20179;-51
2023/08/26 04:44:05;;;;;;;4.45;2.80;;;13.60;99.90;;;;;;5052928;28;20702;-50
2023/08/26 04:46:31;;;;;;;3.67;2.30;;;13.70;99.90;;;;;;5052924;28;20206;-50
2023/08/26 04:48:57;;;;;;;3.97;2.58;;;13.60;99.90;;;;;;5052730;28;20266;-54
2023/08/26 04:51:22;;;;;;;4.47;2.88;;;13.60;99.90;;;;;;5052645;28;20267;-53
2023/08/26 04:53:48;;;;;;;4.72;3.03;;;13.70;99.90;;;;;;5052988;28;20168;-54
2023/08/26 04:56:15;;;;;;;4.47;2.55;;;13.80;99.90;;;;;;5052863;28;20176;-53
2023/08/26 04:58:40;;;;;;;4.82;3.00;;;13.80;99.90;;;;;;5052861;28;20202;-51
2023/08/26 05:01:06;;;;;;;4.78;2.67;;;13.80;99.90;;;;;;5052943;28;20653;-51
2023/08/26 05:03:32;;;;;;;4.47;2.78;;;13.90;99.90;;;;;;5052635;28;20183;-54
2023/08/26 05:05:57;;;;;;;5.82;2.72;;;13.90;99.90;;;;;;5052577;28;20179;-53
2023/08/26 05:08:23;;;;;;;4.90;2.53;;;14.00;99.90;;;;;;5053239;28;20181;-52
2023/08/26 05:10:50;;;;;;;3.20;2.45;;;13.90;99.90;;;;;;5056499;28;20295;-53
2023/08/26 05:13:15;;;;;;;3.67;2.50;;;14.00;99.90;;;;;;5056471;28;20585;-49
2023/08/26 05:15:41;;;;;;;3.85;2.40;;;14.00;99.90;;;;;;5056454;28;20233;-53
2023/08/26 05:18:07;;;;;;;2.97;2.42;;;13.90;99.90;;;;;;5056309;28;20206;-53
2023/08/26 05:20:33;;;;;;;10.00;2.70;;;14.00;99.90;;;;;;5056493;28;20226;-53
2023/08/26 05:22:58;;;;;;;5.85;2.78;;;14.00;99.90;;;;;;5055195;28;20604;-52
2023/08/26 05:25:24;;;;;;;3.20;2.50;;;14.10;99.90;;;;;;5056313;28;20266;-50
2023/08/26 05:27:50;;;;;;;2.70;2.20;;;14.10;99.90;;;;;;5056265;28;20174;-52
2023/08/26 05:30:15;;;;;;;3.63;2.33;;;14.20;99.90;;;;;;5056062;28;20207;-51
2023/08/26 05:32:41;;;;;;;5.47;2.70;;;14.30;99.90;;;;;;5056116;28;20186;-51
2023/08/26 05:35:07;;;;;;;2.85;1.85;;;14.30;99.90;;;;;;5055926;28;20171;-52
2023/08/26 05:37:32;;;;;;;3.55;2.22;;;14.30;99.90;;;;;;5056376;28;20172;-50
2023/08/26 05:39:58;;;;;;;6.13;2.25;;;14.20;99.90;;;;;;5055966;28;20219;-53
2023/08/26 05:42:24;;;;;;;5.63;2.50;;;14.30;99.90;;;;;;5055900;28;20266;-51
2023/08/26 05:44:49;;;;;;;3.35;2.60;;;14.30;99.90;;;;;;5056052;28;20645;-53
2023/08/26 05:47:15;;;;;;;5.28;2.30;;;14.30;99.90;;;;;;5054645;28;20172;-50
2023/08/26 05:49:41;;;;;;;5.68;2.17;;;14.30;99.90;;;;;;5055551;28;20214;-53
2023/08/26 05:52:06;;;;;;;2.40;2.20;;;14.20;99.90;;;;;;5054425;28;20187;-52
2023/08/26 05:54:32;;;;;;;4.43;2.15;;;14.30;99.90;;;;;;5055827;28;20175;-52
2023/08/26 05:56:57;;;;;;;2.88;1.95;;;14.40;99.90;;;;;;5055729;28;20211;-52
2023/08/26 05:59:23;;;;;;;4.15;2.40;;;14.40;99.90;;;;;;5055692;28;20582;-53
2023/08/26 06:01:49;;;;;;;4.90;2.35;;;14.50;99.90;;;;;;5055518;28;20178;-51
2023/08/26 06:04:14;;;;;;;5.03;2.22;;;14.70;99.90;;;;;;5055384;28;20199;-52
2023/08/26 06:06:40;;;;;;;5.88;2.13;;;14.80;99.90;;;;;;5054322;28;20266;-51
2023/08/26 06:09:05;;;;;;;3.65;2.20;;;14.80;99.90;;;;;;5055448;28;20178;-50
2023/08/26 06:11:31;;;;;;;5.28;2.10;;;15.10;99.90;;;;;;5055342;28;20186;-49
2023/08/26 06:13:58;;;;;;;3.42;1.98;;;15.30;99.90;;;;;;5055275;28;20179;-52
2023/08/26 06:16:25;;;;;;;5.05;2.05;;;15.50;99.90;;;;;;5052027;28;20198;-53
2023/08/26 06:18:52;;;;;;;6.53;1.90;;;15.50;99.90;;;;;;5053121;28;20190;-52
2023/08/26 06:21:18;;;;;;;4.70;2.22;;;15.70;99.90;;;;;;5054330;28;20217;-52
2023/08/26 06:23:43;;;;;;;3.85;1.77;;;15.70;99.90;;;;;;5053801;28;20175;-50
2023/08/26 06:26:09;;;;;;;3.60;1.70;;;15.90;99.90;;;;;;5054882;28;20207;-54
2023/08/26 06:28:35;;;;;;;4.00;1.90;;;16.00;99.90;;;;;;5054993;28;20214;-52
2023/08/26 06:31:02;;;;;;;3.45;1.80;;;16.10;99.90;;;;;;5054417;28;20276;-51
2023/08/26 06:33:29;;;;;;;3.63;1.85;;;16.10;99.90;;;;;;5054148;28;20206;-50
2023/08/26 06:35:54;;;;;;;4.43;1.90;;;16.20;99.90;;;;;;5053538;28;20214;-51
2023/08/26 06:38:20;;;;;;;4.20;1.98;;;16.10;99.90;;;;;;5052501;28;20213;-49
2023/08/26 06:40:56;;;;;;;4.30;1.80;;;16.20;99.90;;;;;;5052286;28;20648;-48
2023/08/26 06:43:22;;;;;;;3.55;2.00;;;16.30;99.90;;;;;;5052476;28;20171;-50
2023/08/26 06:45:49;;;;;;;5.32;1.60;;;16.40;99.90;;;;;;5052281;28;20194;-49
2023/08/26 06:48:17;;;;;;;4.53;1.90;;;16.40;99.90;;;;;;5052237;28;20171;-52
2023/08/26 06:50:48;;;;;;;3.70;2.03;;;16.40;99.90;;;;;;5051989;28;20214;-52
2023/08/26 06:53:20;;;;;;;2.60;1.60;;;16.30;99.90;;;;;;5054117;28;20218;-52
2023/08/26 06:55:46;;;;;;;2.97;1.75;;;16.40;99.90;;;;;;5054187;28;20190;-51
2023/08/26 06:58:12;;;;;;;6.20;2.20;;;16.40;99.90;;;;;;5054031;28;20632;-53
2023/08/26 07:00:37;;;;;;;4.35;1.85;;;16.40;99.90;;;;;;5054100;28;20187;-51
2023/08/26 07:03:03;;;;;;;3.58;1.90;;;16.50;99.90;;;;;;5054080;28;20229;-51
2023/08/26 07:05:29;;;;;;;4.00;2.22;;;16.50;99.90;;;;;;5053998;28;20179;-53
2023/08/26 07:07:54;;;;;;;4.63;1.92;;;16.70;99.90;;;;;;5053050;28;20188;-50
2023/08/26 07:10:20;;;;;;;3.38;1.83;;;16.70;99.90;;;;;;5057205;28;20537;-53
2023/08/26 07:12:46;;;;;;;3.78;1.98;;;16.70;99.90;;;;;;5073986;28;20183;-48
2023/08/26 07:15:11;;;;;;;3.38;1.92;;;16.60;99.90;;;;;;5066947;28;20179;-52
2023/08/26 07:17:37;;;;;;;5.05;1.70;;;16.60;99.90;;;;;;5053739;28;20289;-50
2023/08/26 07:20:03;;;;;;;4.15;1.90;;;16.70;99.90;;;;;;5057344;28;20261;-48
2023/08/26 07:22:29;;;;;;;3.25;1.90;;;16.70;99.90;;;;;;5053800;28;20179;-52
2023/08/26 07:24:54;;;;;;;4.00;1.88;;;16.70;99.90;;;;;;5054147;28;20179;-49
2023/08/26 07:27:20;;;;;;;2.72;1.60;;;16.80;99.90;;;;;;5053843;28;20205;-51
2023/08/26 07:29:46;;;;;;;5.03;1.95;;;17.10;99.90;;;;;;5053580;28;20203;-49
2023/08/26 07:32:11;;;;;;;3.25;1.75;;;17.20;99.90;;;;;;5052953;28;20186;-49
2023/08/26 07:34:37;;;;;;;3.53;1.90;;;17.20;99.90;;;;;;5053305;28;20171;-52
2023/08/26 07:37:03;;;;;;;3.92;1.85;;;17.20;99.90;;;;;;5053625;28;20262;-52
2023/08/26 07:39:29;;;;;;;4.13;1.80;;;17.30;99.90;;;;;;5053567;28;20270;-52
2023/08/26 07:41:55;;;;;;;3.67;1.60;;;17.50;99.90;;;;;;5053262;28;20187;-50
2023/08/26 07:44:21;;;;;;;2.25;1.70;;;17.70;99.90;;;;;;5053105;28;20179;-52
2023/08/26 07:46:46;;;;;;;3.95;1.88;;;17.80;99.90;;;;;;5053264;28;20544;-51
2023/08/26 07:49:12;;;;;;;2.05;1.50;;;18.10;99.90;;;;;;5053252;28;20178;-50
2023/08/26 07:51:38;;;;;;;3.40;1.60;;;18.00;99.90;;;;;;5053370;28;20292;-50
2023/08/26 07:54:03;;;;;;;3.63;1.35;;;18.10;99.90;;;;;;5053515;28;20183;-50
2023/08/26 07:56:29;;;;;;;3.67;1.73;;;18.10;99.90;;;;;;5053162;28;20175;-52
2023/08/26 07:58:55;;;;;;;2.72;1.40;;;18.10;99.90;;;;;;5053131;28;20206;-51
2023/08/26 08:01:21;;;;;;;6.18;1.50;;;18.20;99.90;;;;;;5052235;28;20262;-51
2023/08/26 08:03:46;;;;;;;4.70;1.58;;;18.40;99.90;;;;;;5053477;28;20344;-50
2023/08/26 08:06:12;;;;;;;3.47;1.50;;;18.40;99.90;;;;;;5053135;28;20167;-50
2023/08/26 08:08:44;;;;;;;3.60;1.50;;;18.30;99.90;;;;;;5053176;28;20182;-52
2023/08/26 08:11:10;;;;;;;3.33;1.40;;;18.40;99.90;;;;;;5053125;28;20210;-50
2023/08/26 08:13:35;;;;;;;2.03;1.30;;;18.60;99.90;;;;;;5053329;28;20278;-49
2023/08/26 08:16:01;;;;;;;2.05;1.38;;;18.50;99.90;;;;;;5053325;28;20250;-52
2023/08/26 08:18:27;;;;;;;3.97;1.35;;;18.60;99.90;;;;;;5053292;28;20167;-51
2023/08/26 08:20:52;;;;;;;3.67;1.42;;;18.80;99.90;;;;;;5053211;28;20227;-51
2023/08/26 08:23:18;;;;;;;3.15;1.30;;;18.60;99.90;;;;;;5053148;28;20297;-53
2023/08/26 08:25:44;;;;;;;3.13;1.10;;;18.70;99.90;;;;;;5053027;28;20636;-53
2023/08/26 08:28:09;;;;;;;2.13;1.30;;;18.70;99.90;;;;;;5052985;28;20182;-51
2023/08/26 08:30:35;;;;;;;3.13;1.27;;;18.70;99.90;;;;;;5053140;28;20210;-50
2023/08/26 08:33:00;;;;;;;4.05;1.60;;;18.70;99.90;;;;;;5051821;28;20190;-51
2023/08/26 08:35:26;;;;;;;2.78;1.52;;;18.80;99.90;;;;;;5053043;28;20224;-52
2023/08/26 08:37:52;;;;;;;4.10;1.40;;;18.90;99.90;;;;;;5053032;28;20536;-52
2023/08/26 08:40:18;;;;;;;3.13;1.50;;;19.00;99.90;;;;;;5052930;28;20207;-52
2023/08/26 08:42:47;;;;;;;6.82;1.63;;;19.10;99.90;;;;;;5052850;28;20172;-51
2023/08/26 08:45:13;;;;;;;2.58;1.30;;;19.20;99.90;;;;;;5056480;28;20175;-50
2023/08/26 08:47:39;;;;;;;1.90;1.35;;;19.20;99.90;;;;;;5056821;28;20182;-51
2023/08/26 08:50:05;;;;;;;3.10;1.40;;;19.40;99.90;;;;;;5056884;28;20280;-50
2023/08/26 08:52:32;;;;;;;2.55;1.40;;;19.50;99.90;;;;;;5056920;28;20654;-51
2023/08/26 08:54:58;;;;;;;3.42;1.33;;;19.60;99.90;;;;;;5056695;28;20179;-51
2023/08/26 08:57:34;;;;;;;3.53;1.33;;;19.70;99.90;;;;;;5056691;28;20528;-48
2023/08/26 09:00:02;;;;;;;2.90;1.40;;;19.80;99.90;;;;;;5056922;28;20644;-51
2023/08/26 09:02:28;;;;;;;2.75;1.20;;;19.80;99.90;;;;;;5056666;28;20175;-51
2023/08/26 09:04:54;;;;;;;2.92;1.45;;;19.90;99.90;;;;;;5056564;28;20183;-51
2023/08/26 09:07:21;;;;;;;4.40;1.52;;;19.70;99.90;;;;;;5056614;28;20694;-51
2023/08/26 09:09:47;;;;;;;4.50;1.48;;;19.70;99.90;;;;;;5056377;28;20218;-52
2023/08/26 09:12:13;;;;;;;3.63;1.45;;;19.70;99.90;;;;;;5056632;28;20183;-48
2023/08/26 09:14:38;;;;;;;3.30;1.40;;;19.90;99.90;;;;;;5056524;28;20179;-53
2023/08/26 09:17:20;;;;;;;1.70;1.27;;;19.90;99.90;;;;;;5056407;28;20586;-51
2023/08/26 09:19:53;;;;;;;3.70;1.50;;;19.90;99.90;;;;;;5056288;28;20226;-52
2023/08/26 09:22:23;;;;;;;3.67;1.50;;;20.10;99.90;;;;;;5056158;28;20244;-51
2023/08/26 09:24:53;;;;;;;2.85;1.50;;;20.00;99.90;;;;;;5056380;28;20209;-52
2023/08/26 09:27:18;;;;;;;3.95;1.60;;;20.00;99.90;;;;;;5056119;28;20760;-50
2023/08/26 09:29:44;;;;;;;3.22;1.45;;;20.10;99.90;;;;;;5056182;28;20221;-52
2023/08/26 09:32:09;;;;;;;2.05;1.35;;;20.20;99.90;;;;;;5056232;28;20171;-53
2023/08/26 09:34:36;;;;;;;2.88;1.40;;;20.30;99.90;;;;;;5056011;28;20175;-51
2023/08/26 09:37:01;;;;;;;3.15;1.30;;;20.30;99.90;;;;;;5055932;28;20175;-50
2023/08/26 09:39:28;;;;;;;3.85;1.55;;;20.40;99.90;;;;;;5055870;28;20179;-53
2023/08/26 09:41:55;;;;;;;3.42;1.55;;;20.50;99.90;;;;;;5055878;28;20509;-52
2023/08/26 09:44:21;;;;;;;3.40;1.30;;;20.50;99.90;;;;;;5055972;28;20244;-52
2023/08/26 09:46:47;;;;;;;4.65;1.65;;;20.30;99.90;;;;;;5055791;28;20179;-52
2023/08/26 09:49:13;;;;;;;5.10;1.52;;;20.50;99.90;;;;;;5055722;28;20171;-53
2023/08/26 09:51:46;;;;;;;3.42;1.60;;;20.50;99.90;;;;;;5055629;28;20187;-50
2023/08/26 09:54:15;;;;;;;3.90;1.30;;;20.70;99.90;;;;;;5055115;28;20534;-50
2023/08/26 09:56:41;;;;;;;1.55;1.20;;;20.80;99.90;;;;;;5055579;28;20691;-51
2023/08/26 09:59:06;;;;;;;2.22;1.15;;;20.80;99.90;;;;;;5055696;28;20183;-53
2023/08/26 10:01:34;;;;;;;1.50;0.95;;;20.90;99.90;;;;;;5055850;28;20550;-52
2023/08/26 10:04:08;;;;;;;2.75;1.33;;;20.90;99.90;;;;;;5055233;28;20167;-48
2023/08/26 10:06:42;;;;;;;1.42;1.10;;;20.90;99.90;;;;;;5055050;28;20167;-51
2023/08/26 10:09:31;;;;;;;2.05;1.23;;;21.00;99.90;;;;;;5055374;28;20183;-52
2023/08/26 10:12:00;;;;;;;2.33;1.20;;;21.20;99.90;;;;;;5055466;28;20571;-50
2023/08/26 10:14:29;;;;;;;1.80;1.20;;;20.90;99.90;;;;;;5055317;28;20203;-49
2023/08/26 10:16:56;;;;;;;4.15;1.42;;;20.90;99.90;;;;;;5055160;28;20172;-50
2023/08/26 10:19:23;;;;;;;1.30;1.10;;;21.10;99.90;;;;;;5054485;28;20233;-50
2023/08/26 10:21:50;;;;;;;3.40;1.20;;;21.30;99.90;;;;;;5055277;28;20264;-49
2023/08/26 10:24:17;;;;;;;4.38;1.42;;;21.40;99.90;;;;;;5055394;28;20171;-51
2023/08/26 10:26:43;;;;;;;1.88;1.20;;;21.60;99.90;;;;;;5054999;28;20175;-51
2023/08/26 10:29:10;;;;;;;3.55;1.20;;;21.80;99.90;;;;;;5054850;28;20245;-51
2023/08/26 10:31:38;;;;;;;3.10;1.23;;;21.80;99.90;;;;;;5055159;28;20274;-52
2023/08/26 10:34:07;;;;;;;3.75;1.23;;;21.80;99.90;;;;;;5054995;28;20175;-49
2023/08/26 10:36:41;;;;;;;2.35;1.20;;;21.80;99.90;;;;;;5054980;28;20651;-49
2023/08/26 10:39:20;;;;;;;2.00;1.00;;;21.80;99.90;;;;;;5054993;28;20244;-49
2023/08/26 10:42:10;;;;;;;2.53;1.17;;;21.90;99.90;;;;;;5054465;28;20179;-51
2023/08/26 10:44:46;;;;;;;1.90;0.80;;;22.10;99.90;;;;;;5054963;28;20548;-50
2023/08/26 10:47:12;;;;;;;2.50;1.25;;;22.00;99.90;;;;;;5054832;28;20171;-50
2023/08/26 10:49:37;;;;;;;2.13;1.00;;;21.90;99.90;;;;;;5054459;28;20199;-51
2023/08/26 10:52:18;;;;;;;1.20;0.90;;;21.80;99.90;;;;;;5054481;28;20186;-48
2023/08/26 10:54:45;;;;;;;1.23;0.80;;;21.70;99.90;;;;;;5054510;28;20175;-49
2023/08/26 10:57:11;;;;;;;1.95;1.00;;;21.50;99.90;;;;;;5054871;28;20171;-49
2023/08/26 10:59:41;;;;;;;2.33;1.00;;;21.40;99.90;;;;;;5053176;28;20175;-50
2023/08/26 11:02:09;;;;;;;2.90;0.95;;;21.50;99.90;;;;;;5054467;28;20171;-51
2023/08/26 11:04:45;;;;;;;2.03;0.80;;;21.70;99.90;;;;;;5054290;28;20171;-50
2023/08/26 11:07:18;;;;;;;2.55;0.90;;;22.00;99.90;;;;;;5053609;28;20170;-51
2023/08/26 11:09:44;;;;;;;3.22;1.08;;;22.10;99.90;;;;;;5054053;28;20221;-50
2023/08/26 11:12:26;;;;;;;2.38;0.80;;;22.00;99.90;;;;;;5054191;28;20190;-48
2023/08/26 11:15:02;;;;;;;1.98;0.80;;;21.90;99.90;;;;;;5054056;28;20206;-49
2023/08/26 11:17:28;;;;;;;2.05;1.00;;;21.70;99.90;;;;;;5054295;28;20171;-49
2023/08/26 11:19:54;;;;;;;1.73;0.88;;;21.30;99.90;;;;;;5054005;28;20227;-50
2023/08/26 11:22:25;;;;;;;2.63;0.90;;;21.20;99.90;;;;;;5054117;28;20176;-52
2023/08/26 11:24:51;;;;;;;1.17;0.90;;;21.40;99.90;;;;;;5054003;28;20173;-49
2023/08/26 11:27:16;;;;;;;3.70;1.00;;;21.60;99.90;;;;;;5053916;28;20262;-49
2023/08/26 11:29:42;;;;;;;1.20;0.90;;;21.90;99.90;;;;;;5053631;28;20238;-47
2023/08/26 11:32:09;;;;;;;2.42;0.80;;;22.00;99.90;;;;;;5053905;28;20308;-53
2023/08/26 11:34:34;;;;;;;2.35;0.90;;;22.10;99.90;;;;;;5053825;28;20195;-50
2023/08/26 11:37:00;;;;;;;2.63;0.82;;;22.30;99.90;;;;;;5053736;28;20664;-50
2023/08/26 11:39:36;;;;;;;3.20;0.85;;;22.40;99.90;;;;;;5053719;28;20269;-49
2023/08/26 11:42:14;;;;;;;2.30;0.70;;;22.20;99.90;;;;;;5053632;28;20171;-54
2023/08/26 11:44:47;;;;;;;0.80;0.55;;;22.30;99.90;;;;;;5053514;28;20320;-49
2023/08/26 11:47:13;;;;;;;1.45;0.90;;;22.30;99.90;;;;;;5053743;28;20167;-53
2023/08/26 11:49:39;;;;;;;2.28;0.88;;;22.40;99.90;;;;;;5053477;28;20257;-52
2023/08/26 11:52:08;;;;;;;4.05;0.82;;;22.60;99.90;;;;;;5053533;28;20707;-52
2023/08/26 11:54:34;;;;;;;2.13;0.80;;;22.50;99.90;;;;;;5053410;28;20648;-52
2023/08/26 11:57:00;;;;;;;2.13;1.00;;;22.50;99.90;;;;;;5053263;28;20178;-53
2023/08/26 11:59:36;;;;;;;2.95;0.73;;;22.20;99.90;;;;;;5053471;28;20609;-50
2023/08/26 12:02:24;;;;;;;0.98;0.80;;;21.80;99.90;;;;;;5053361;28;20175;-52
2023/08/26 12:04:59;;;;;;;2.42;0.80;;;21.40;99.90;;;;;;5053263;28;20167;-52
2023/08/26 12:07:26;;;;;;;1.38;0.73;;;21.20;99.90;;;;;;5053195;28;20182;-51
2023/08/26 12:09:52;;;;;;;2.97;0.85;;;21.20;99.90;;;;;;5053276;28;20211;-50
2023/08/26 12:12:22;;;;;;;2.45;0.90;;;21.10;99.90;;;;;;5053183;28;20579;-53
2023/08/26 12:14:48;;;;;;;1.65;0.82;;;21.10;99.90;;;;;;5053178;28;20202;-51
2023/08/26 12:17:14;;;;;;;1.92;0.73;;;20.90;99.90;;;;;;5052996;28;20172;-50
2023/08/26 12:19:43;;;;;;;3.42;0.93;;;20.90;99.90;;;;;;5053137;28;20241;-49
2023/08/26 12:22:10;;;;;;;1.88;0.80;;;21.10;99.90;;;;;;5053155;28;20305;-52
2023/08/26 12:24:39;;;;;;;2.75;0.88;;;21.10;99.90;;;;;;5053224;28;20182;-52
2023/08/26 12:27:10;;;;;;;1.25;0.70;;;21.00;99.90;;;;;;5053041;28;20250;-50
2023/08/26 12:29:37;;;;;;;1.63;0.63;;;20.90;99.90;;;;;;5052989;28;20697;-48
2023/08/26 12:32:04;;;;;;;1.90;0.93;;;20.80;99.90;;;;;;5053054;28;20206;-51
2023/08/26 12:34:30;;;;;;;2.15;0.90;;;20.60;99.90;;;;;;5052892;28;20666;-51
2023/08/26 12:36:56;;;;;;;1.35;0.70;;;20.40;99.90;;;;;;5053198;28;20171;-53
2023/08/26 12:39:24;;;;;;;2.25;0.90;;;20.30;99.90;;;;;;5053063;28;20663;-52
2023/08/26 12:41:51;;;;;;;2.00;0.70;;;20.30;99.90;;;;;;5052996;28;20639;-52
2023/08/26 12:44:17;;;;;;;3.03;0.95;;;20.10;99.90;;;;;;5052878;28;20186;-53
2023/08/26 12:46:42;;;;;;;2.38;0.73;;;20.00;99.90;;;;;;5052822;28;20167;-53